Time;durP1;ratioP1;P1;durP2;ratioP2;P2;SDS_P1;SDS_P2;PMS_P1;PMS_P2;Temp;Humidity;BMP_temperature;BMP_pressure;BME280_temperature;BME280_humidity;BME280_pressure;Samples;Min_cycle;Max_cycle;Signal;HPM_P1;HPM_P2
2023/09/19 00:00:56;;;;;;;15.27;2.97;;;;;;;14.22;100.00;100725.03;5050700;28;20372;-53
2023/09/19 00:03:22;;;;;;;13.60;3.30;;;;;;;14.21;100.00;100724.19;5052800;28;20017;-50
2023/09/19 00:05:50;;;;;;;14.65;3.50;;;;;;;14.20;100.00;100722.50;5052951;28;20017;-50
2023/09/19 00:08:16;;;;;;;11.27;3.97;;;;;;;14.18;100.00;100731.66;5046189;28;20021;-51
2023/09/19 00:10:41;;;;;;;17.20;3.42;;;;;;;14.16;100.00;100730.97;5048322;28;20087;-51
2023/09/19 00:13:12;;;;;;;15.73;3.50;;;;;;;14.12;100.00;100737.56;5053299;28;20036;-50
2023/09/19 00:15:40;;;;;;;15.00;3.40;;;;;;;14.11;100.00;100733.22;5045238;28;20032;-50
2023/09/19 00:18:08;;;;;;;10.95;3.05;;;;;;;14.09;100.00;100744.03;5054026;28;20025;-50
2023/09/19 00:20:38;;;;;;;12.13;3.30;;;;;;;14.08;100.00;100734.34;5049938;28;20108;-50
2023/09/19 00:23:04;;;;;;;14.45;3.60;;;;;;;14.06;100.00;100747.00;5045931;28;20505;-50
2023/09/19 00:25:29;;;;;;;14.48;3.40;;;;;;;14.02;100.00;100743.78;5043298;28;20079;-49
2023/09/19 00:27:55;;;;;;;10.88;2.97;;;;;;;14.01;100.00;100757.28;5042901;28;20021;-50
2023/09/19 00:30:21;;;;;;;11.30;3.30;;;;;;;13.99;100.00;100760.06;5044332;28;20021;-53
2023/09/19 00:32:48;;;;;;;14.10;3.42;;;;;;;13.97;100.00;100758.53;5041494;28;20124;-52
2023/09/19 00:35:16;;;;;;;17.05;3.70;;;;;;;13.96;100.00;100762.19;5044998;28;20559;-53
2023/09/19 00:37:42;;;;;;;13.35;3.47;;;;;;;13.93;100.00;100765.97;5043333;28;20092;-50
2023/09/19 00:40:12;;;;;;;15.40;3.65;;;;;;;13.91;100.00;100767.94;5043990;28;20029;-50
2023/09/19 00:42:39;;;;;;;12.48;3.53;;;;;;;13.91;100.00;100778.63;5049600;28;20419;-52
2023/09/19 00:45:06;;;;;;;17.27;3.72;;;;;;;13.91;100.00;100777.78;5040238;28;20136;-52
2023/09/19 00:47:31;;;;;;;14.45;3.47;;;;;;;13.87;100.00;100778.06;5045004;28;20035;-50
2023/09/19 00:49:57;;;;;;;13.88;3.40;;;;;;;13.84;100.00;100778.34;5044830;28;20025;-52
2023/09/19 00:52:23;;;;;;;13.75;3.28;;;;;;;13.84;100.00;100782.84;5047837;28;20494;-53
2023/09/19 00:54:49;;;;;;;12.45;3.10;;;;;;;13.79;100.00;100780.59;5044227;28;20349;-52
2023/09/19 00:57:15;;;;;;;14.20;3.05;;;;;;;13.79;100.00;100798.41;5049405;28;20426;-53
2023/09/19 00:59:42;;;;;;;16.38;3.22;;;;;;;13.74;100.00;100792.66;5046874;28;20340;-53
2023/09/19 01:02:07;;;;;;;14.25;3.53;;;;;;;13.73;100.00;100796.34;5045104;28;20514;-53
2023/09/19 01:04:34;;;;;;;10.80;3.08;;;;;;;13.71;100.00;100796.47;5046073;28;20057;-52
2023/09/19 01:06:59;;;;;;;13.80;3.75;;;;;;;13.68;100.00;100799.41;5054695;28;20112;-52
2023/09/19 01:09:25;;;;;;;16.35;3.42;;;;;;;13.68;100.00;100807.41;5054876;28;20115;-51
2023/09/19 01:11:57;;;;;;;15.60;3.58;;;;;;;13.66;100.00;100806.72;5053390;28;20467;-52
2023/09/19 01:14:32;;;;;;;10.68;2.80;;;;;;;13.62;100.00;100806.16;5049423;28;20482;-53
2023/09/19 01:17:07;;;;;;;13.18;3.60;;;;;;;13.61;100.00;100804.47;5048531;28;20029;-50
2023/09/19 01:19:44;;;;;;;15.77;2.90;;;;;;;13.59;100.00;100813.56;5050511;28;20040;-52
2023/09/19 01:22:18;;;;;;;13.93;3.22;;;;;;;13.59;100.00;100810.91;5053053;28;20029;-50
2023/09/19 01:25:11;;;;;;;14.52;3.25;;;;;;;13.56;100.00;100811.22;5053945;28;20025;-52
2023/09/19 01:28:13;;;;;;;13.65;3.30;;;;;;;13.55;100.00;100815.69;5071295;28;20502;-53
2023/09/19 01:30:43;;;;;;;12.30;3.85;;;;;;;13.42;100.00;100804.41;5045795;28;20033;-53
2023/09/19 01:33:10;;;;;;;16.40;3.40;;;;;;;13.46;100.00;100816.53;5054808;28;20029;-50
2023/09/19 01:35:38;;;;;;;13.35;3.03;;;;;;;13.42;100.00;100812.41;5053117;28;20057;-51
2023/09/19 01:38:04;;;;;;;11.88;3.10;;;;;;;13.39;100.00;100823.34;5049772;28;20052;-50
2023/09/19 01:40:30;;;;;;;13.02;2.85;;;;;;;13.39;100.00;100828.69;5052359;28;20025;-51
2023/09/19 01:43:08;;;;;;;12.25;3.45;;;;;;;13.41;100.00;100832.09;5057733;28;20029;-51
2023/09/19 01:45:43;;;;;;;14.85;3.03;;;;;;;13.37;100.00;100831.50;5043612;28;20463;-52
2023/09/19 01:48:36;;;;;;;18.00;2.97;;;;;;;13.38;100.00;100829.69;5051210;28;20033;-50
2023/09/19 01:51:07;;;;;;;11.38;3.38;;;;;;;13.31;100.00;100830.19;5048195;28;20094;-49
2023/09/19 01:53:44;;;;;;;16.98;3.40;;;;;;;13.32;100.00;100828.41;5047322;28;20427;-50
2023/09/19 01:56:16;;;;;;;12.27;3.20;;;;;;;13.25;100.00;100819.22;5037890;28;20126;-49
2023/09/19 01:58:50;;;;;;;14.70;3.10;;;;;;;13.30;99.89;100825.00;5041071;28;20021;-50
2023/09/19 02:01:21;;;;;;;15.20;3.22;;;;;;;13.26;99.79;100821.75;5048290;28;20125;-50
2023/09/19 02:03:49;;;;;;;10.93;3.13;;;;;;;13.24;99.59;100823.72;5045366;28;21471;-49
2023/09/19 02:06:15;;;;;;;14.77;3.22;;;;;;;13.26;99.54;100824.44;5051570;28;20055;-50
2023/09/19 02:08:41;;;;;;;15.27;3.00;;;;;;;13.23;99.22;100829.19;5049795;28;20033;-50
2023/09/19 02:11:06;;;;;;;11.20;3.00;;;;;;;13.23;99.10;100835.38;5047340;28;20033;-49
2023/09/19 02:13:31;;;;;;;12.98;2.70;;;;;;;13.22;99.19;100828.34;5044891;28;20033;-50
2023/09/19 02:15:57;;;;;;;15.20;3.67;;;;;;;13.21;98.90;100831.16;5044204;28;20030;-50
2023/09/19 02:18:22;;;;;;;14.68;2.70;;;;;;;13.19;98.67;100825.09;5044204;28;20040;-50
2023/09/19 02:20:48;;;;;;;14.50;3.45;;;;;;;13.11;98.12;100815.94;5045399;28;20033;-49
2023/09/19 02:23:15;;;;;;;16.05;2.88;;;;;;;13.13;97.96;100827.31;5053227;28;20056;-52
2023/09/19 02:25:40;;;;;;;14.30;3.05;;;;;;;13.11;97.97;100826.63;5051468;28;20031;-49
2023/09/19 02:28:06;;;;;;;10.77;3.35;;;;;;;13.09;97.65;100833.91;5051906;28;20021;-49
2023/09/19 02:30:32;;;;;;;11.20;2.80;;;;;;;13.09;97.89;100847.25;5043410;28;20836;-51
2023/09/19 02:32:57;;;;;;;13.38;3.15;;;;;;;13.07;98.11;100835.00;5046187;28;20038;-51
2023/09/19 02:35:23;;;;;;;11.82;2.72;;;;;;;13.04;97.08;100841.47;5049399;28;20120;-51
2023/09/19 02:37:48;;;;;;;12.80;2.95;;;;;;;13.04;97.13;100846.81;5053491;28;20098;-50
2023/09/19 02:40:21;;;;;;;10.85;2.85;;;;;;;13.02;97.25;100842.56;5048092;28;20044;-49
2023/09/19 02:42:49;;;;;;;10.75;2.97;;;;;;;12.97;96.96;100834.97;5046053;28;20087;-50
2023/09/19 02:45:17;;;;;;;12.52;3.08;;;;;;;12.94;97.99;100838.75;5054186;28;20487;-50
2023/09/19 02:47:44;;;;;;;11.88;3.03;;;;;;;12.94;97.03;100843.25;5048490;28;20048;-51
2023/09/19 02:50:13;;;;;;;14.40;3.05;;;;;;;12.90;97.52;100850.66;5046929;28;20037;-51
2023/09/19 02:52:38;;;;;;;;;;;;;;;12.98;97.33;100852.66;5052198;28;20029;-50
2023/09/19 02:55:05;;;;;;;12.03;3.10;;;;;;;12.89;96.58;100859.66;5052021;28;19909;-51
2023/09/19 02:57:33;;;;;;;13.18;3.13;;;;;;;12.85;95.52;100847.53;5050698;28;20740;-50
2023/09/19 03:00:00;;;;;;;8.57;2.63;;;;;;;12.78;95.88;100844.56;5047063;28;20033;-49
2023/09/19 03:02:27;;;;;;;9.15;2.80;;;;;;;12.80;97.30;100846.25;5043340;28;20041;-50
2023/09/19 03:04:53;;;;;;;10.75;2.90;;;;;;;12.80;97.40;100857.75;5043060;28;20021;-50
2023/09/19 03:07:18;;;;;;;8.15;3.05;;;;;;;12.77;95.72;100850.03;5043929;28;20035;-50
2023/09/19 03:09:44;;;;;;;11.10;2.97;;;;;;;12.74;96.14;100851.16;5046523;28;20430;-50
2023/09/19 03:12:10;;;;;;;14.68;3.90;;;;;;;12.73;95.28;100851.28;5044828;28;20028;-50
2023/09/19 03:14:35;;;;;;;13.48;3.08;;;;;;;12.71;95.66;100854.06;5047229;28;20534;-50
2023/09/19 03:17:04;;;;;;;13.68;3.13;;;;;;;12.71;95.36;100850.56;5044430;28;20131;-50
2023/09/19 03:19:30;;;;;;;9.43;2.50;;;;;;;12.71;96.14;100845.25;5047474;28;20021;-50
2023/09/19 03:21:57;;;;;;;14.90;3.38;;;;;;;12.69;95.53;100847.16;5055463;28;20340;-50
2023/09/19 03:24:23;;;;;;;11.00;2.60;;;;;;;12.70;95.55;100854.19;5048704;28;20475;-51
2023/09/19 03:26:48;;;;;;;15.93;3.55;;;;;;;12.68;95.85;100851.66;5048322;28;20091;-52
2023/09/19 03:29:14;;;;;;;10.05;2.60;;;;;;;12.67;95.62;100855.28;5046797;28;20390;-50
2023/09/19 03:31:39;;;;;;;11.27;3.13;;;;;;;12.65;95.38;100845.75;5044408;28;20029;-50
2023/09/19 03:34:04;;;;;;;11.48;3.00;;;;;;;12.67;96.27;100849.13;5051936;28;20463;-50
2023/09/19 03:36:30;;;;;;;11.88;3.38;;;;;;;12.66;95.13;100844.78;5051960;28;20483;-50
2023/09/19 03:38:55;;;;;;;12.57;3.13;;;;;;;12.66;96.69;100842.97;5052550;28;20447;-50
2023/09/19 03:41:21;;;;;;;10.68;2.70;;;;;;;12.68;96.46;100842.84;5050477;28;20037;-50
2023/09/19 03:43:46;;;;;;;7.20;2.92;;;;;;;12.68;95.98;100845.50;5050282;28;20044;-50
2023/09/19 03:46:15;;;;;;;10.65;2.95;;;;;;;12.69;95.71;100840.03;5049526;28;20083;-50
2023/09/19 03:48:40;;;;;;;11.30;3.00;;;;;;;12.70;96.58;100833.72;5050392;28;20021;-50
2023/09/19 03:51:05;;;;;;;10.18;2.72;;;;;;;12.70;97.04;100836.38;5049667;28;20781;-50
2023/09/19 03:53:31;;;;;;;9.77;2.78;;;;;;;12.70;96.78;100838.22;5049618;28;20033;-50
2023/09/19 03:55:57;;;;;;;12.75;3.15;;;;;;;12.71;96.72;100835.41;5045851;28;20036;-50
2023/09/19 03:58:22;;;;;;;13.40;3.08;;;;;;;12.72;96.90;100826.47;5046048;28;20159;-50
2023/09/19 04:00:49;;;;;;;14.40;2.88;;;;;;;12.75;96.97;100833.31;5043092;28;20113;-50
2023/09/19 04:03:20;;;;;;;14.98;3.00;;;;;;;12.74;97.22;100843.16;5045082;28;20029;-50
2023/09/19 04:05:46;;;;;;;10.18;3.05;;;;;;;12.75;96.87;100836.00;5040753;28;20057;-49
2023/09/19 04:08:12;;;;;;;12.85;3.10;;;;;;;12.79;98.03;100848.09;5047591;28;20577;-51
2023/09/19 04:10:37;;;;;;;12.00;3.15;;;;;;;12.79;97.91;100834.75;5043791;28;20040;-49
2023/09/19 04:13:03;;;;;;;12.90;3.28;;;;;;;12.81;97.87;100834.63;5048677;28;20414;-51
2023/09/19 04:15:29;;;;;;;13.50;3.47;;;;;;;12.82;97.46;100829.13;5044524;28;20036;-49
2023/09/19 04:17:54;;;;;;;14.80;3.10;;;;;;;12.84;97.84;100837.00;5049688;28;20479;-50
2023/09/19 04:20:23;;;;;;;13.18;2.90;;;;;;;12.82;97.70;100842.47;5050256;28;20154;-51
2023/09/19 04:22:48;;;;;;;12.18;2.92;;;;;;;12.82;97.83;100847.81;5051613;28;20029;-52
2023/09/19 04:25:14;;;;;;;13.05;3.63;;;;;;;12.82;98.22;100853.13;5052414;28;20036;-51
2023/09/19 04:27:41;;;;;;;12.65;3.20;;;;;;;12.84;98.09;100863.66;5045298;28;20036;-53
2023/09/19 04:30:11;;;;;;;14.18;3.13;;;;;;;12.86;98.61;100869.72;5049803;28;20060;-51
2023/09/19 04:32:39;;;;;;;14.30;2.90;;;;;;;12.84;98.05;100869.88;5047002;28;20079;-50
2023/09/19 04:35:08;;;;;;;13.65;2.92;;;;;;;12.85;98.44;100878.69;5043536;28;20025;-51
2023/09/19 04:37:35;;;;;;;12.07;2.95;;;;;;;12.86;98.53;100883.06;5052044;28;20032;-51
2023/09/19 04:40:00;;;;;;;11.00;3.13;;;;;;;12.87;98.69;100887.41;5056279;28;20032;-51
2023/09/19 04:42:25;;;;;;;14.70;2.90;;;;;;;12.88;99.48;100892.59;5056390;28;20079;-53
2023/09/19 04:44:53;;;;;;;16.45;3.20;;;;;;;12.88;99.24;100895.25;5049679;28;20575;-50
2023/09/19 04:47:19;;;;;;;14.77;3.15;;;;;;;12.90;100.00;100893.31;5053428;28;20486;-53
2023/09/19 04:49:44;;;;;;;15.45;3.22;;;;;;;12.93;99.47;100901.03;5046612;28;20033;-50
2023/09/19 04:52:09;;;;;;;16.70;3.75;;;;;;;12.94;99.03;100904.56;5053080;28;20465;-54
2023/09/19 04:54:35;;;;;;;16.83;2.72;;;;;;;12.98;98.88;100905.16;5055968;28;20103;-51
2023/09/19 04:57:00;;;;;;;13.20;3.10;;;;;;;12.99;99.36;100915.69;5051028;28;20504;-52
2023/09/19 04:59:26;;;;;;;13.35;3.03;;;;;;;12.99;98.85;100909.50;5048796;28;20025;-56
2023/09/19 05:01:51;;;;;;;10.20;3.05;;;;;;;13.01;98.96;100919.06;5055090;28;20040;-50
2023/09/19 05:04:16;;;;;;;14.23;3.42;;;;;;;13.03;98.72;100911.78;5049481;28;20104;-53
2023/09/19 05:06:42;;;;;;;13.63;3.40;;;;;;;13.02;98.89;100912.72;5053410;28;20152;-50
2023/09/19 05:09:08;;;;;;;14.93;3.00;;;;;;;13.02;99.68;100926.06;5050729;28;20025;-53
2023/09/19 05:11:33;;;;;;;10.30;2.67;;;;;;;13.02;98.71;100917.22;5059154;28;20025;-50
2023/09/19 05:14:03;;;;;;;9.95;2.72;;;;;;;13.02;98.73;100914.56;5052551;28;20036;-53
2023/09/19 05:16:31;;;;;;;9.50;2.78;;;;;;;13.02;99.69;100918.06;5050729;28;20034;-53
2023/09/19 05:18:56;;;;;;;13.88;3.25;;;;;;;13.01;99.00;100915.56;5049916;28;20048;-50
2023/09/19 05:21:23;;;;;;;13.98;3.00;;;;;;;13.01;99.16;100915.56;5046041;28;20452;-51
2023/09/19 05:23:49;;;;;;;14.30;3.00;;;;;;;12.98;100.00;100918.47;5046845;28;21514;-49
2023/09/19 05:26:16;;;;;;;11.35;2.97;;;;;;;13.01;99.92;100919.06;5042400;28;20025;-50
2023/09/19 05:28:42;;;;;;;11.43;3.15;;;;;;;13.01;99.75;100927.06;5040483;28;20033;-50
2023/09/19 05:31:07;;;;;;;10.18;2.90;;;;;;;13.00;100.00;100921.84;5050512;28;20017;-51
2023/09/19 05:33:33;;;;;;;11.88;3.13;;;;;;;13.01;100.00;100928.88;5042108;28;20044;-50
2023/09/19 05:35:58;;;;;;;12.43;3.28;;;;;;;13.00;100.00;100920.03;5051053;28;20021;-50
2023/09/19 05:38:24;;;;;;;10.93;2.70;;;;;;;13.01;100.00;100920.88;5038745;28;20037;-50
2023/09/19 05:40:49;;;;;;;10.05;2.78;;;;;;;13.00;100.00;100930.69;5034862;28;20092;-50
2023/09/19 05:43:14;;;;;;;11.55;3.22;;;;;;;13.02;100.00;100925.22;5048677;28;20132;-50
2023/09/19 05:45:40;;;;;;;11.30;3.20;;;;;;;13.00;100.00;100928.03;5039243;28;20022;-51
2023/09/19 05:48:15;;;;;;;13.65;3.00;;;;;;;13.00;100.00;100928.03;5044581;28;20041;-50
2023/09/19 05:50:41;;;;;;;14.85;3.00;;;;;;;13.01;100.00;100929.72;5041445;28;20061;-50
2023/09/19 05:53:06;;;;;;;15.27;3.72;;;;;;;13.02;100.00;100920.72;5054000;28;20029;-50
2023/09/19 05:55:32;;;;;;;11.35;3.10;;;;;;;13.03;100.00;100917.09;5043306;28;20562;-50
2023/09/19 05:57:58;;;;;;;12.85;3.17;;;;;;;13.03;100.00;100913.59;5041275;28;20021;-51
2023/09/19 06:00:26;;;;;;;14.25;3.53;;;;;;;13.04;100.00;100912.59;5045117;28;20590;-54
2023/09/19 06:02:56;;;;;;;14.85;3.25;;;;;;;13.05;100.00;100915.13;5050020;28;20059;-50
2023/09/19 06:05:23;;;;;;;18.83;3.90;;;;;;;13.05;100.00;100922.31;5041879;28;20382;-51
2023/09/19 06:07:48;;;;;;;12.20;3.38;;;;;;;13.05;100.00;100923.13;5047977;28;20028;-50
2023/09/19 06:10:14;;;;;;;13.98;3.33;;;;;;;13.08;100.00;100917.53;5040470;28;20035;-50
2023/09/19 06:12:43;;;;;;;14.68;3.47;;;;;;;13.09;100.00;100918.38;5040545;28;20205;-51
2023/09/19 06:15:09;;;;;;;;;;;;;;;13.15;100.00;100917.88;5047287;28;20025;-50
2023/09/19 06:17:37;;;;;;;15.85;3.47;;;;;;;13.14;100.00;100927.69;5045463;28;19916;-50
2023/09/19 06:20:09;;;;;;;14.25;2.90;;;;;;;13.14;100.00;100929.53;5044925;28;20024;-50
2023/09/19 06:22:35;;;;;;;16.58;3.97;;;;;;;13.17;100.00;100933.72;5044134;28;20132;-50
2023/09/19 06:25:01;;;;;;;19.13;3.58;;;;;;;13.19;100.00;100937.97;5043348;28;20022;-50
2023/09/19 06:27:27;;;;;;;15.00;3.75;;;;;;;13.21;100.00;100937.84;5048507;28;20116;-50
2023/09/19 06:29:53;;;;;;;16.40;3.10;;;;;;;13.23;100.00;100946.53;5044125;28;20152;-50
2023/09/19 06:32:18;;;;;;;14.68;3.10;;;;;;;13.26;100.00;100951.63;5045306;28;20038;-50
2023/09/19 06:34:43;;;;;;;11.48;3.20;;;;;;;13.26;100.00;100951.63;5052069;28;20029;-51
2023/09/19 06:37:08;;;;;;;14.20;3.50;;;;;;;13.27;100.00;100955.97;5045665;28;20108;-50
2023/09/19 06:39:34;;;;;;;13.95;3.13;;;;;;;13.30;100.00;100951.19;5050815;28;20511;-51
2023/09/19 06:42:01;;;;;;;14.60;3.25;;;;;;;13.31;100.00;100958.25;5049404;28;20171;-51
2023/09/19 06:44:29;;;;;;;17.65;3.42;;;;;;;13.34;100.00;100954.50;5045639;28;20076;-50
2023/09/19 06:46:54;;;;;;;13.50;3.88;;;;;;;13.35;100.00;100963.34;5051866;28;20025;-50
2023/09/19 06:49:20;;;;;;;12.90;3.35;;;;;;;13.40;100.00;100951.28;5046353;28;20033;-50
2023/09/19 06:51:45;;;;;;;16.50;3.20;;;;;;;13.43;100.00;100959.03;5041464;28;20025;-50
2023/09/19 06:54:11;;;;;;;12.70;3.08;;;;;;;13.48;100.00;100961.31;5048712;28;20021;-50
2023/09/19 06:56:36;;;;;;;13.27;2.83;;;;;;;13.50;100.00;100959.34;5047847;28;20035;-51
2023/09/19 06:59:03;;;;;;;15.90;3.58;;;;;;;13.54;100.00;100957.25;5052123;28;20040;-50
2023/09/19 07:01:28;;;;;;;13.52;3.40;;;;;;;13.57;100.00;100956.97;5044757;28;20032;-53
2023/09/19 07:03:54;;;;;;;15.25;3.35;;;;;;;13.60;100.00;100946.88;5041335;28;20383;-50
2023/09/19 07:06:19;;;;;;;10.10;2.85;;;;;;;13.64;100.00;100955.47;5046732;28;20025;-49
2023/09/19 07:08:45;;;;;;;11.82;3.15;;;;;;;13.66;100.00;100949.00;5043046;28;20116;-53
2023/09/19 07:11:12;;;;;;;14.18;3.10;;;;;;;13.70;100.00;100960.25;5043481;28;20029;-51
2023/09/19 07:13:38;;;;;;;11.48;2.90;;;;;;;13.80;100.00;100955.78;5046790;28;20044;-52
2023/09/19 07:16:03;;;;;;;18.67;3.83;;;;;;;13.81;100.00;100956.66;5046234;28;20028;-51
2023/09/19 07:18:29;;;;;;;14.20;3.20;;;;;;;13.87;100.00;100967.63;5052372;28;20110;-51
2023/09/19 07:21:01;;;;;;;10.05;2.90;;;;;;;13.90;100.00;100963.84;5039693;28;20021;-50
2023/09/19 07:23:26;;;;;;;11.50;3.38;;;;;;;13.93;100.00;100968.06;5048681;28;20078;-51
2023/09/19 07:25:51;;;;;;;12.48;2.78;;;;;;;13.96;100.00;100965.97;5045589;28;20030;-50
2023/09/19 07:28:17;;;;;;;16.20;3.88;;;;;;;13.98;100.00;100963.16;5048769;28;20071;-51
2023/09/19 07:30:43;;;;;;;13.88;3.30;;;;;;;14.05;100.00;100964.28;5043580;28;20437;-53
2023/09/19 07:33:11;;;;;;;14.20;3.20;;;;;;;14.12;100.00;100959.25;5048555;28;20035;-50
2023/09/19 07:35:39;;;;;;;14.93;3.20;;;;;;;14.19;100.00;100960.41;5043620;28;20035;-52
2023/09/19 07:38:05;;;;;;;21.00;4.18;;;;;;;14.29;100.00;100957.72;5045415;28;20021;-50
2023/09/19 07:40:30;;;;;;;13.25;3.40;;;;;;;14.39;100.00;100962.09;5047750;28;20082;-51
2023/09/19 07:42:55;;;;;;;14.90;3.60;;;;;;;14.47;99.63;100964.09;5045880;28;20418;-50
2023/09/19 07:45:21;;;;;;;11.45;2.92;;;;;;;14.57;100.00;100961.38;5046646;28;20280;-50
2023/09/19 07:47:47;;;;;;;13.18;3.50;;;;;;;14.66;98.99;100965.94;5046814;28;20356;-50
2023/09/19 07:50:15;;;;;;;16.88;3.00;;;;;;;14.78;99.90;100970.13;5046963;28;20024;-52
2023/09/19 07:52:41;;;;;;;12.57;3.10;;;;;;;14.86;99.09;100969.44;5048590;28;20436;-50
2023/09/19 07:55:11;;;;;;;15.98;4.13;;;;;;;14.94;97.71;100964.22;5044035;28;20385;-51
2023/09/19 07:57:37;;;;;;;13.35;3.20;;;;;;;15.04;98.50;100974.03;5038277;28;20021;-52
2023/09/19 08:00:04;;;;;;;17.52;2.85;;;;;;;15.11;96.56;100967.16;5046046;28;20033;-50
2023/09/19 08:02:33;;;;;;;15.20;3.80;;;;;;;15.22;97.47;100972.34;5034558;28;20036;-50
2023/09/19 08:05:00;;;;;;;;;;;;;;;15.31;97.93;100978.66;5039565;28;20025;-51
2023/09/19 08:07:25;;;;;;;14.70;3.10;;;;;;;15.41;96.05;100973.28;5037668;28;19981;-50
2023/09/19 08:09:51;;;;;;;11.43;2.97;;;;;;;15.53;96.87;100986.31;5037304;28;20116;-50
2023/09/19 08:12:16;;;;;;;13.30;3.10;;;;;;;15.55;93.73;100980.81;5042908;28;21163;-50
2023/09/19 08:14:42;;;;;;;18.95;3.67;;;;;;;15.62;95.55;100968.53;5042938;28;20032;-51
2023/09/19 08:17:08;;;;;;;13.20;3.20;;;;;;;15.68;94.91;100980.47;5035507;28;20032;-50
2023/09/19 08:19:33;;;;;;;11.57;3.08;;;;;;;15.75;93.15;100978.91;5040158;28;20025;-48
2023/09/19 08:21:59;;;;;;;13.60;3.75;;;;;;;15.88;94.48;100970.56;5049896;28;20029;-49
2023/09/19 08:24:28;;;;;;;13.25;3.00;;;;;;;16.06;94.19;100978.63;5052532;28;20116;-49
2023/09/19 08:26:54;;;;;;;15.40;3.13;;;;;;;16.13;91.16;100974.34;5050819;28;20378;-51
2023/09/19 08:29:20;;;;;;;16.02;4.63;;;;;;;16.24;91.70;100970.63;5017324;28;20399;-50
2023/09/19 08:31:47;;;;;;;16.73;3.03;;;;;;;16.32;92.16;100978.75;5042729;28;20025;-49
2023/09/19 08:34:12;;;;;;;13.93;3.80;;;;;;;16.38;89.25;100974.63;5049158;28;20074;-50
2023/09/19 08:36:39;;;;;;;16.00;4.15;;;;;;;16.46;89.66;100970.16;5047812;28;20037;-50
2023/09/19 08:39:04;;;;;;;12.10;2.97;;;;;;;16.61;91.14;100975.00;5055588;28;20032;-50
2023/09/19 08:41:29;;;;;;;14.55;3.38;;;;;;;16.63;89.51;100981.06;5053903;28;20033;-50
2023/09/19 08:44:01;;;;;;;13.30;3.25;;;;;;;16.70;90.16;100970.53;5055552;28;20371;-51
2023/09/19 08:46:31;;;;;;;14.30;3.00;;;;;;;16.76;88.19;100969.94;5050537;28;20120;-53
2023/09/19 08:49:14;;;;;;;10.27;3.00;;;;;;;16.88;87.88;100979.44;5055120;28;20037;-51
2023/09/19 08:51:45;;;;;;;11.07;3.13;;;;;;;16.97;86.96;100973.16;5051249;28;20032;-51
2023/09/19 08:54:22;;;;;;;10.60;2.97;;;;;;;17.06;85.53;100990.16;5047713;28;20029;-51
2023/09/19 08:56:50;;;;;;;12.18;3.42;;;;;;;17.15;85.94;100975.81;5052147;28;20033;-51
2023/09/19 08:59:17;;;;;;;12.43;3.40;;;;;;;17.29;84.85;100976.22;5048896;28;20049;-49
2023/09/19 09:01:42;;;;;;;14.35;3.42;;;;;;;17.43;83.59;100981.00;5052059;28;20032;-50
2023/09/19 09:04:09;;;;;;;16.73;3.97;;;;;;;17.53;82.79;100979.03;5044321;28;20045;-49
2023/09/19 09:06:35;;;;;;;15.63;3.47;;;;;;;17.74;85.62;100965.22;5052093;28;20387;-50
2023/09/19 09:09:03;;;;;;;15.05;3.50;;;;;;;18.00;85.15;100971.53;5050564;28;20026;-49
2023/09/19 09:11:28;;;;;;;11.35;2.90;;;;;;;18.14;83.21;100970.91;5052370;28;20127;-50
2023/09/19 09:13:53;;;;;;;8.77;3.00;;;;;;;18.33;83.52;100968.94;5049659;28;20097;-50
2023/09/19 09:16:19;;;;;;;11.95;3.10;;;;;;;18.36;80.20;100979.38;5050110;28;20131;-49
2023/09/19 09:18:45;;;;;;;11.93;2.85;;;;;;;18.56;80.68;100979.91;5041434;28;20025;-50
2023/09/19 09:21:15;;;;;;;12.90;2.97;;;;;;;18.58;80.06;100975.19;5050115;28;20024;-50
2023/09/19 09:23:40;;;;;;;14.43;3.15;;;;;;;18.63;77.51;100986.28;5044905;28;20032;-50
2023/09/19 09:26:07;;;;;;;14.37;3.60;;;;;;;18.68;78.34;100987.50;5047019;28;20032;-50
2023/09/19 09:28:35;;;;;;;13.27;3.15;;;;;;;18.91;79.52;100980.63;5052340;28;20280;-49
2023/09/19 09:31:09;;;;;;;13.60;3.33;;;;;;;19.18;78.10;100980.22;5040975;28;20055;-50
2023/09/19 09:33:35;;;;;;;15.25;3.08;;;;;;;19.31;76.03;100971.63;5052774;28;20514;-50
2023/09/19 09:36:02;;;;;;;8.65;3.25;;;;;;;19.30;75.29;100967.28;5043794;28;20025;-49
2023/09/19 09:38:43;;;;;;;15.07;3.15;;;;;;;19.29;73.99;100970.13;5045220;28;20055;-49
2023/09/19 09:41:09;;;;;;;13.05;3.00;;;;;;;19.27;74.55;100964.91;5047922;28;20025;-51
2023/09/19 09:43:41;;;;;;;15.93;3.35;;;;;;;19.29;74.16;100965.59;5041961;28;20499;-49
2023/09/19 09:48:54;;;;;;;;;;;;;;;19.56;77.16;100950.84;5050643;28;20098;-52
2023/09/19 09:51:33;;;;;;;9.55;2.83;;;;;;;19.67;74.56;100949.63;5051762;28;19912;-50
2023/09/19 09:54:36;;;;;;;;;;;;;;;19.83;76.98;100961.38;5050999;28;20037;-50
2023/09/19 09:57:23;;;;;;;13.65;3.08;;;;;;;19.89;73.41;100963.38;5056051;28;19921;-51
2023/09/19 09:59:58;;;;;;;12.50;3.42;;;;;;;19.87;70.85;100968.97;5047755;28;20418;-49
2023/09/19 10:02:36;;;;;;;13.15;2.95;;;;;;;19.84;71.18;100957.69;5052895;28;20110;-50
2023/09/19 10:05:27;;;;;;;11.60;2.78;;;;;;;19.78;72.21;100968.16;5038539;28;20087;-51
2023/09/19 10:07:53;;;;;;;11.20;3.00;;;;;;;19.81;70.38;100971.50;5036886;28;20044;-49
2023/09/19 10:13:12;;;;;;;10.97;2.30;;;;;;;19.81;68.76;100963.44;5045587;28;20136;-50
2023/09/19 10:15:40;;;;;;;11.05;2.95;;;;;;;19.93;72.04;100956.63;5042284;28;20558;-50
2023/09/19 10:18:08;;;;;;;14.48;2.92;;;;;;;19.94;69.81;100967.22;5055710;28;20082;-50
2023/09/19 10:20:38;;;;;;;13.23;3.08;;;;;;;19.90;68.49;100965.91;5043277;28;20056;-50
2023/09/19 10:23:09;;;;;;;14.85;2.88;;;;;;;19.80;69.84;100942.88;5044522;28;20132;-49
2023/09/19 10:25:37;;;;;;;15.95;3.65;;;;;;;19.86;69.21;100947.56;5044770;28;20052;-49
2023/09/19 10:28:13;;;;;;;13.07;2.92;;;;;;;19.92;69.49;100944.16;5044710;28;20048;-49
2023/09/19 10:30:43;;;;;;;10.35;3.00;;;;;;;20.01;70.30;100953.06;5043068;28;20442;-50
2023/09/19 10:33:09;;;;;;;12.40;3.22;;;;;;;20.06;67.28;100956.06;5046545;28;20123;-50
2023/09/19 10:35:40;;;;;;;12.07;4.40;;;;;;;20.18;67.42;100961.88;5044861;28;20457;-52
2023/09/19 10:38:06;;;;;;;9.95;2.97;;;;;;;20.29;66.62;100950.69;5046111;28;20471;-50
2023/09/19 10:40:34;;;;;;;9.65;2.70;;;;;;;20.35;65.26;100955.38;5051665;28;20055;-50
2023/09/19 10:43:07;;;;;;;16.88;3.33;;;;;;;20.45;67.45;100955.09;5046870;28;20087;-50
2023/09/19 10:45:34;;;;;;;8.57;2.67;;;;;;;20.48;65.42;100947.53;5046523;28;20041;-51
2023/09/19 10:48:01;;;;;;;12.48;2.75;;;;;;;20.48;64.74;100950.22;5045154;28;20022;-50
2023/09/19 10:50:31;;;;;;;12.88;3.08;;;;;;;20.80;67.63;100945.59;5046153;28;20033;-50
2023/09/19 10:53:04;;;;;;;12.18;2.58;;;;;;;20.77;62.98;100950.53;5042726;28;20374;-51
2023/09/19 10:55:31;;;;;;;11.05;2.90;;;;;;;20.78;62.69;100946.78;5046764;28;20033;-50
2023/09/19 10:58:14;;;;;;;11.07;2.67;;;;;;;21.01;66.09;100944.88;5043648;28;20530;-49
2023/09/19 11:00:54;;;;;;;9.30;2.60;;;;;;;21.21;64.79;100944.34;5050228;28;20467;-51
2023/09/19 11:03:23;;;;;;;12.45;2.95;;;;;;;21.36;61.50;100942.50;5044425;28;20074;-50
2023/09/19 11:06:18;;;;;;;9.63;2.83;;;;;;;21.36;62.97;100923.56;5041369;28;20029;-51
2023/09/19 11:08:56;;;;;;;6.53;2.35;;;;;;;21.43;62.40;100916.41;5049155;28;20025;-50
2023/09/19 11:11:40;;;;;;;11.68;2.60;;;;;;;21.52;62.92;100902.84;5047173;28;20032;-50
2023/09/19 11:14:24;;;;;;;9.35;2.55;;;;;;;21.56;61.25;100904.13;5049198;28;20044;-51
2023/09/19 11:17:04;;;;;;;11.02;2.75;;;;;;;21.66;61.71;100909.25;5054046;28;20048;-50
2023/09/19 11:22:56;;;;;;;9.35;2.47;;;;;;;21.76;59.33;100910.59;5045165;28;20032;-49
2023/09/19 11:25:31;;;;;;;11.50;2.47;;;;;;;21.84;59.15;100901.56;5047467;28;20037;-50
2023/09/19 11:28:07;;;;;;;10.57;2.35;;;;;;;21.93;60.05;100894.16;5048880;28;20108;-49
2023/09/19 11:30:36;;;;;;;8.13;2.63;;;;;;;21.89;58.17;100899.13;5042222;28;20032;-50